Westside, Iowa
Current Conditions -  °F | °C
As of 1:55 PM on Sunday 23 Nov 2014 (Local Time) from KDNS Reporting Station
Overcast Overcast  
Wind Chill:   Ceiling: 2300
Heat Index:   Visibility: 10mi
Dew Point:   Wind: 17mph
Humidity: 81%   Direction: 330°NNW
Pressure: 29.43"   Gusts: 28mph
Location:  42.06°N, 95.1°W
Report Text: KDNS 231955Z AUTO 33015G24KT 10SM SCT018 OVC023 07/04 A2943 RMK AO2
Loading
Personal Weather Stations






























Interactive Weather Map New forecast layout! Learn more

10-Day Weather Forecast

Advertisements
Track Severe Weather on mobile